sensor_id;sensor_type;location;lat;lon;timestamp;P1;durP1;ratioP1;P2;durP2;ratioP2
32407;SDS011;18869;55.970;37.502;2022-12-18T00:01:14;15.10;;;11.37;;
32407;SDS011;18869;55.970;37.502;2022-12-18T00:03:43;11.97;;;10.03;;
32407;SDS011;18869;55.970;37.502;2022-12-18T00:06:10;13.57;;;11.77;;
32407;SDS011;18869;55.970;37.502;2022-12-18T00:08:39;13.80;;;12.20;;
32407;SDS011;18869;55.970;37.502;2022-12-18T00:11:08;15.27;;;11.07;;
32407;SDS011;18869;55.970;37.502;2022-12-18T00:13:37;13.53;;;11.23;;
32407;SDS011;18869;55.970;37.502;2022-12-18T00:16:07;14.93;;;11.07;;
32407;SDS011;18869;55.970;37.502;2022-12-18T00:18:37;12.80;;;11.33;;
32407;SDS011;18869;55.970;37.502;2022-12-18T00:21:05;15.00;;;11.00;;
32407;SDS011;18869;55.970;37.502;2022-12-18T00:23:35;16.83;;;11.23;;
32407;SDS011;18869;55.970;37.502;2022-12-18T00:26:04;13.57;;;11.40;;
32407;SDS011;18869;55.970;37.502;2022-12-18T00:28:33;12.93;;;11.00;;
32407;SDS011;18869;55.970;37.502;2022-12-18T00:31:00;17.73;;;11.77;;
32407;SDS011;18869;55.970;37.502;2022-12-18T00:33:30;12.53;;;11.20;;
32407;SDS011;18869;55.970;37.502;2022-12-18T00:36:00;12.63;;;10.90;;
32407;SDS011;18869;55.970;37.502;2022-12-18T00:38:28;14.83;;;12.23;;
32407;SDS011;18869;55.970;37.502;2022-12-18T00:40:55;13.70;;;12.23;;
32407;SDS011;18869;55.970;37.502;2022-12-18T00:43:23;15.87;;;11.50;;
32407;SDS011;18869;55.970;37.502;2022-12-18T00:45:50;12.80;;;10.03;;
32407;SDS011;18869;55.970;37.502;2022-12-18T00:48:19;14.60;;;12.63;;
32407;SDS011;18869;55.970;37.502;2022-12-18T00:50:48;14.53;;;11.63;;
32407;SDS011;18869;55.970;37.502;2022-12-18T00:53:16;15.97;;;11.70;;
32407;SDS011;18869;55.970;37.502;2022-12-18T00:55:45;14.70;;;12.87;;
32407;SDS011;18869;55.970;37.502;2022-12-18T00:58:13;12.67;;;10.93;;
32407;SDS011;18869;55.970;37.502;2022-12-18T01:00:41;16.10;;;12.73;;
32407;SDS011;18869;55.970;37.502;2022-12-18T01:03:12;14.27;;;11.77;;
32407;SDS011;18869;55.970;37.502;2022-12-18T01:05:42;12.87;;;10.80;;
32407;SDS011;18869;55.970;37.502;2022-12-18T01:08:12;14.50;;;11.97;;
32407;SDS011;18869;55.970;37.502;2022-12-18T01:10:42;12.70;;;10.90;;
32407;SDS011;18869;55.970;37.502;2022-12-18T01:13:09;13.33;;;11.93;;
32407;SDS011;18869;55.970;37.502;2022-12-18T01:15:37;12.73;;;10.53;;
32407;SDS011;18869;55.970;37.502;2022-12-18T01:18:05;12.47;;;11.17;;
32407;SDS011;18869;55.970;37.502;2022-12-18T01:20:33;14.53;;;11.07;;
32407;SDS011;18869;55.970;37.502;2022-12-18T01:23:01;13.17;;;10.33;;
32407;SDS011;18869;55.970;37.502;2022-12-18T01:25:29;13.00;;;11.03;;
32407;SDS011;18869;55.970;37.502;2022-12-18T01:27:57;11.97;;;9.77;;
32407;SDS011;18869;55.970;37.502;2022-12-18T01:30:24;14.27;;;10.03;;
32407;SDS011;18869;55.970;37.502;2022-12-18T01:32:52;11.30;;;9.90;;
32407;SDS011;18869;55.970;37.502;2022-12-18T01:35:19;11.10;;;9.97;;
32407;SDS011;18869;55.970;37.502;2022-12-18T01:37:47;11.63;;;10.50;;
32407;SDS011;18869;55.970;37.502;2022-12-18T01:40:15;11.57;;;9.93;;
32407;SDS011;18869;55.970;37.502;2022-12-18T01:42:44;12.17;;;9.90;;
32407;SDS011;18869;55.970;37.502;2022-12-18T01:45:22;10.67;;;9.57;;
32407;SDS011;18869;55.970;37.502;2022-12-18T01:47:52;12.07;;;10.07;;
32407;SDS011;18869;55.970;37.502;2022-12-18T01:50:22;12.43;;;11.07;;
32407;SDS011;18869;55.970;37.502;2022-12-18T01:52:54;11.07;;;9.43;;
32407;SDS011;18869;55.970;37.502;2022-12-18T01:55:25;9.97;;;8.97;;
32407;SDS011;18869;55.970;37.502;2022-12-18T01:57:55;10.90;;;9.50;;
32407;SDS011;18869;55.970;37.502;2022-12-18T02:00:25;11.60;;;9.83;;
32407;SDS011;18869;55.970;37.502;2022-12-18T02:02:54;11.00;;;9.87;;
32407;SDS011;18869;55.970;37.502;2022-12-18T02:05:23;10.43;;;9.27;;
32407;SDS011;18869;55.970;37.502;2022-12-18T02:07:58;11.50;;;10.40;;
32407;SDS011;18869;55.970;37.502;2022-12-18T02:10:33;10.67;;;9.23;;
32407;SDS011;18869;55.970;37.502;2022-12-18T02:13:07;9.60;;;8.60;;
32407;SDS011;18869;55.970;37.502;2022-12-18T02:16:01;9.97;;;8.93;;
32407;SDS011;18869;55.970;37.502;2022-12-18T02:18:35;8.93;;;7.90;;
32407;SDS011;18869;55.970;37.502;2022-12-18T02:21:07;12.60;;;10.13;;
32407;SDS011;18869;55.970;37.502;2022-12-18T02:23:41;13.40;;;9.17;;
32407;SDS011;18869;55.970;37.502;2022-12-18T02:26:16;10.90;;;9.17;;
32407;SDS011;18869;55.970;37.502;2022-12-18T02:28:49;9.60;;;8.57;;
32407;SDS011;18869;55.970;37.502;2022-12-18T02:31:23;10.87;;;8.47;;
32407;SDS011;18869;55.970;37.502;2022-12-18T02:33:57;10.47;;;8.27;;
32407;SDS011;18869;55.970;37.502;2022-12-18T02:36:26;10.13;;;9.13;;
32407;SDS011;18869;55.970;37.502;2022-12-18T02:38:56;10.07;;;9.07;;
32407;SDS011;18869;55.970;37.502;2022-12-18T02:41:26;9.80;;;8.83;;
32407;SDS011;18869;55.970;37.502;2022-12-18T02:43:55;9.43;;;8.53;;
32407;SDS011;18869;55.970;37.502;2022-12-18T02:46:25;9.43;;;8.50;;
32407;SDS011;18869;55.970;37.502;2022-12-18T02:48:57;10.30;;;8.13;;
32407;SDS011;18869;55.970;37.502;2022-12-18T02:51:32;9.20;;;8.37;;
32407;SDS011;18869;55.970;37.502;2022-12-18T02:54:06;10.67;;;9.10;;
32407;SDS011;18869;55.970;37.502;2022-12-18T02:56:39;9.10;;;8.00;;
32407;SDS011;18869;55.970;37.502;2022-12-18T02:59:14;9.43;;;8.27;;
32407;SDS011;18869;55.970;37.502;2022-12-18T03:01:47;9.30;;;8.50;;
32407;SDS011;18869;55.970;37.502;2022-12-18T03:04:18;9.73;;;8.73;;
32407;SDS011;18869;55.970;37.502;2022-12-18T03:06:49;8.10;;;7.17;;
32407;SDS011;18869;55.970;37.502;2022-12-18T03:09:19;9.37;;;8.37;;
32407;SDS011;18869;55.970;37.502;2022-12-18T03:11:53;7.87;;;7.07;;
32407;SDS011;18869;55.970;37.502;2022-12-18T03:14:39;8.20;;;7.10;;
32407;SDS011;18869;55.970;37.502;2022-12-18T03:17:09;11.13;;;8.70;;
32407;SDS011;18869;55.970;37.502;2022-12-18T03:19:39;9.27;;;8.07;;
32407;SDS011;18869;55.970;37.502;2022-12-18T03:22:09;9.60;;;8.70;;
32407;SDS011;18869;55.970;37.502;2022-12-18T03:24:38;9.43;;;8.53;;
32407;SDS011;18869;55.970;37.502;2022-12-18T03:27:09;8.30;;;7.50;;
32407;SDS011;18869;55.970;37.502;2022-12-18T03:29:40;8.43;;;7.47;;
32407;SDS011;18869;55.970;37.502;2022-12-18T03:32:12;9.73;;;8.73;;
32407;SDS011;18869;55.970;37.502;2022-12-18T03:34:44;8.03;;;7.23;;
32407;SDS011;18869;55.970;37.502;2022-12-18T03:37:17;7.93;;;7.13;;
32407;SDS011;18869;55.970;37.502;2022-12-18T03:39:45;9.07;;;8.13;;
32407;SDS011;18869;55.970;37.502;2022-12-18T03:42:15;8.87;;;7.90;;
32407;SDS011;18869;55.970;37.502;2022-12-18T03:44:49;8.90;;;8.00;;
32407;SDS011;18869;55.970;37.502;2022-12-18T03:47:22;8.97;;;8.07;;
32407;SDS011;18869;55.970;37.502;2022-12-18T03:49:55;10.20;;;9.30;;
32407;SDS011;18869;55.970;37.502;2022-12-18T03:52:25;9.40;;;8.53;;
32407;SDS011;18869;55.970;37.502;2022-12-18T03:54:55;8.87;;;8.07;;
32407;SDS011;18869;55.970;37.502;2022-12-18T03:57:26;8.57;;;7.67;;
32407;SDS011;18869;55.970;37.502;2022-12-18T03:59:56;9.20;;;8.30;;
32407;SDS011;18869;55.970;37.502;2022-12-18T04:02:27;8.80;;;8.00;;
32407;SDS011;18869;55.970;37.502;2022-12-18T04:04:57;8.97;;;7.83;;
32407;SDS011;18869;55.970;37.502;2022-12-18T04:07:28;8.07;;;6.77;;
32407;SDS011;18869;55.970;37.502;2022-12-18T04:09:57;9.10;;;8.27;;
32407;SDS011;18869;55.970;37.502;2022-12-18T04:12:28;11.13;;;8.97;;
32407;SDS011;18869;55.970;37.502;2022-12-18T04:14:56;9.20;;;8.27;;
32407;SDS011;18869;55.970;37.502;2022-12-18T04:17:25;8.70;;;7.83;;
32407;SDS011;18869;55.970;37.502;2022-12-18T04:19:53;8.60;;;7.60;;
32407;SDS011;18869;55.970;37.502;2022-12-18T04:22:21;9.20;;;8.23;;
32407;SDS011;18869;55.970;37.502;2022-12-18T04:24:50;8.83;;;7.90;;
32407;SDS011;18869;55.970;37.502;2022-12-18T04:27:19;8.67;;;7.83;;
32407;SDS011;18869;55.970;37.502;2022-12-18T04:29:48;9.07;;;8.17;;
32407;SDS011;18869;55.970;37.502;2022-12-18T04:32:17;9.77;;;8.87;;
32407;SDS011;18869;55.970;37.502;2022-12-18T04:34:46;9.33;;;8.43;;
32407;SDS011;18869;55.970;37.502;2022-12-18T04:37:14;9.13;;;8.13;;
32407;SDS011;18869;55.970;37.502;2022-12-18T04:39:42;8.83;;;7.73;;
32407;SDS011;18869;55.970;37.502;2022-12-18T04:42:10;11.47;;;9.47;;
32407;SDS011;18869;55.970;37.502;2022-12-18T04:44:37;8.50;;;7.60;;
32407;SDS011;18869;55.970;37.502;2022-12-18T04:47:06;9.67;;;8.73;;
32407;SDS011;18869;55.970;37.502;2022-12-18T04:49:34;9.03;;;8.13;;
32407;SDS011;18869;55.970;37.502;2022-12-18T04:52:01;9.87;;;8.87;;
32407;SDS011;18869;55.970;37.502;2022-12-18T04:54:29;9.97;;;8.47;;
32407;SDS011;18869;55.970;37.502;2022-12-18T04:56:56;9.97;;;8.83;;
32407;SDS011;18869;55.970;37.502;2022-12-18T04:59:24;8.17;;;7.30;;
32407;SDS011;18869;55.970;37.502;2022-12-18T05:01:51;9.50;;;8.47;;
32407;SDS011;18869;55.970;37.502;2022-12-18T05:04:20;9.47;;;8.57;;
32407;SDS011;18869;55.970;37.502;2022-12-18T05:06:49;11.50;;;10.23;;
32407;SDS011;18869;55.970;37.502;2022-12-18T05:09:17;9.80;;;8.67;;
32407;SDS011;18869;55.970;37.502;2022-12-18T05:11:45;10.20;;;8.33;;
32407;SDS011;18869;55.970;37.502;2022-12-18T05:14:13;10.07;;;9.07;;
32407;SDS011;18869;55.970;37.502;2022-12-18T05:16:40;8.00;;;7.30;;
32407;SDS011;18869;55.970;37.502;2022-12-18T05:19:08;10.10;;;9.03;;
32407;SDS011;18869;55.970;37.502;2022-12-18T05:21:37;11.33;;;10.23;;
32407;SDS011;18869;55.970;37.502;2022-12-18T05:24:05;9.80;;;8.83;;
32407;SDS011;18869;55.970;37.502;2022-12-18T05:26:33;10.97;;;9.03;;
32407;SDS011;18869;55.970;37.502;2022-12-18T05:29:01;8.97;;;7.77;;
32407;SDS011;18869;55.970;37.502;2022-12-18T05:31:28;8.57;;;7.70;;
32407;SDS011;18869;55.970;37.502;2022-12-18T05:33:57;8.97;;;8.00;;
32407;SDS011;18869;55.970;37.502;2022-12-18T05:36:25;13.07;;;9.50;;
32407;SDS011;18869;55.970;37.502;2022-12-18T05:38:54;8.80;;;7.90;;
32407;SDS011;18869;55.970;37.502;2022-12-18T05:41:21;8.77;;;7.90;;
32407;SDS011;18869;55.970;37.502;2022-12-18T05:43:51;9.40;;;8.50;;
32407;SDS011;18869;55.970;37.502;2022-12-18T05:46:19;9.43;;;8.17;;
32407;SDS011;18869;55.970;37.502;2022-12-18T05:48:46;9.17;;;8.30;;
32407;SDS011;18869;55.970;37.502;2022-12-18T05:51:17;10.07;;;9.07;;
32407;SDS011;18869;55.970;37.502;2022-12-18T05:53:46;9.73;;;8.53;;
32407;SDS011;18869;55.970;37.502;2022-12-18T05:56:16;9.10;;;8.20;;
32407;SDS011;18869;55.970;37.502;2022-12-18T05:58:45;9.97;;;8.57;;
32407;SDS011;18869;55.970;37.502;2022-12-18T06:01:14;9.40;;;8.40;;
32407;SDS011;18869;55.970;37.502;2022-12-18T06:03:44;10.23;;;9.27;;
32407;SDS011;18869;55.970;37.502;2022-12-18T06:06:15;11.17;;;9.03;;
32407;SDS011;18869;55.970;37.502;2022-12-18T06:08:44;8.13;;;7.33;;
32407;SDS011;18869;55.970;37.502;2022-12-18T06:11:11;9.23;;;8.10;;
32407;SDS011;18869;55.970;37.502;2022-12-18T06:13:40;8.80;;;7.80;;
32407;SDS011;18869;55.970;37.502;2022-12-18T06:16:09;9.73;;;8.10;;
32407;SDS011;18869;55.970;37.502;2022-12-18T06:18:36;8.57;;;7.77;;
32407;SDS011;18869;55.970;37.502;2022-12-18T06:21:03;9.60;;;7.93;;
32407;SDS011;18869;55.970;37.502;2022-12-18T06:23:32;8.40;;;7.57;;
32407;SDS011;18869;55.970;37.502;2022-12-18T06:26:02;8.87;;;7.97;;
32407;SDS011;18869;55.970;37.502;2022-12-18T06:28:31;9.50;;;8.50;;
32407;SDS011;18869;55.970;37.502;2022-12-18T06:31:00;9.03;;;8.13;;
32407;SDS011;18869;55.970;37.502;2022-12-18T06:33:29;7.47;;;6.77;;
32407;SDS011;18869;55.970;37.502;2022-12-18T06:35:59;7.93;;;7.23;;
32407;SDS011;18869;55.970;37.502;2022-12-18T06:38:27;9.63;;;8.63;;
32407;SDS011;18869;55.970;37.502;2022-12-18T06:40:57;9.93;;;8.90;;
32407;SDS011;18869;55.970;37.502;2022-12-18T06:43:25;8.27;;;7.47;;
32407;SDS011;18869;55.970;37.502;2022-12-18T06:45:59;8.20;;;7.40;;
32407;SDS011;18869;55.970;37.502;2022-12-18T06:48:30;11.27;;;8.80;;
32407;SDS011;18869;55.970;37.502;2022-12-18T06:50:57;8.87;;;7.70;;
32407;SDS011;18869;55.970;37.502;2022-12-18T06:53:25;8.80;;;7.80;;
32407;SDS011;18869;55.970;37.502;2022-12-18T06:55:52;9.13;;;7.90;;
32407;SDS011;18869;55.970;37.502;2022-12-18T06:58:25;8.00;;;7.30;;
32407;SDS011;18869;55.970;37.502;2022-12-18T07:00:58;8.10;;;7.10;;
32407;SDS011;18869;55.970;37.502;2022-12-18T07:03:28;8.57;;;7.27;;
32407;SDS011;18869;55.970;37.502;2022-12-18T07:05:57;9.97;;;8.97;;
32407;SDS011;18869;55.970;37.502;2022-12-18T07:08:25;8.77;;;7.87;;
32407;SDS011;18869;55.970;37.502;2022-12-18T07:10:53;9.73;;;8.13;;
32407;SDS011;18869;55.970;37.502;2022-12-18T07:13:21;9.80;;;7.53;;
32407;SDS011;18869;55.970;37.502;2022-12-18T07:15:49;8.33;;;7.63;;
32407;SDS011;18869;55.970;37.502;2022-12-18T07:18:16;8.23;;;6.73;;
32407;SDS011;18869;55.970;37.502;2022-12-18T07:20:46;7.27;;;6.57;;
32407;SDS011;18869;55.970;37.502;2022-12-18T07:23:14;8.27;;;7.47;;
32407;SDS011;18869;55.970;37.502;2022-12-18T07:25:41;8.03;;;7.30;;
32407;SDS011;18869;55.970;37.502;2022-12-18T07:28:09;8.60;;;7.53;;
32407;SDS011;18869;55.970;37.502;2022-12-18T07:30:38;8.67;;;7.87;;
32407;SDS011;18869;55.970;37.502;2022-12-18T07:33:05;8.13;;;7.13;;
32407;SDS011;18869;55.970;37.502;2022-12-18T07:35:33;7.77;;;6.73;;
32407;SDS011;18869;55.970;37.502;2022-12-18T07:38:06;8.47;;;7.67;;
32407;SDS011;18869;55.970;37.502;2022-12-18T07:40:33;9.73;;;7.90;;
32407;SDS011;18869;55.970;37.502;2022-12-18T07:43:01;8.07;;;7.00;;
32407;SDS011;18869;55.970;37.502;2022-12-18T07:45:32;9.53;;;8.53;;
32407;SDS011;18869;55.970;37.502;2022-12-18T07:48:00;7.93;;;6.43;;
32407;SDS011;18869;55.970;37.502;2022-12-18T07:50:27;7.57;;;6.87;;
32407;SDS011;18869;55.970;37.502;2022-12-18T07:52:55;9.17;;;7.77;;
32407;SDS011;18869;55.970;37.502;2022-12-18T07:55:28;8.33;;;7.17;;
32407;SDS011;18869;55.970;37.502;2022-12-18T07:57:55;8.57;;;6.90;;
32407;SDS011;18869;55.970;37.502;2022-12-18T08:00:24;8.77;;;6.73;;
32407;SDS011;18869;55.970;37.502;2022-12-18T08:02:51;7.67;;;6.97;;
32407;SDS011;18869;55.970;37.502;2022-12-18T08:05:19;8.07;;;7.37;;
32407;SDS011;18869;55.970;37.502;2022-12-18T08:07:48;8.97;;;8.00;;
32407;SDS011;18869;55.970;37.502;2022-12-18T08:10:15;9.47;;;7.77;;
32407;SDS011;18869;55.970;37.502;2022-12-18T08:12:44;8.23;;;7.33;;
32407;SDS011;18869;55.970;37.502;2022-12-18T08:15:12;8.97;;;7.07;;
32407;SDS011;18869;55.970;37.502;2022-12-18T08:17:40;8.80;;;6.80;;
32407;SDS011;18869;55.970;37.502;2022-12-18T08:20:08;7.57;;;6.80;;
32407;SDS011;18869;55.970;37.502;2022-12-18T08:22:39;7.07;;;6.30;;
32407;SDS011;18869;55.970;37.502;2022-12-18T08:25:07;7.87;;;6.97;;
32407;SDS011;18869;55.970;37.502;2022-12-18T08:27:35;7.63;;;6.93;;
32407;SDS011;18869;55.970;37.502;2022-12-18T08:30:06;7.93;;;7.23;;
32407;SDS011;18869;55.970;37.502;2022-12-18T08:32:35;8.17;;;7.13;;
32407;SDS011;18869;55.970;37.502;2022-12-18T08:35:02;7.93;;;7.23;;
32407;SDS011;18869;55.970;37.502;2022-12-18T08:37:30;7.77;;;7.07;;
32407;SDS011;18869;55.970;37.502;2022-12-18T08:39:59;7.37;;;6.57;;
32407;SDS011;18869;55.970;37.502;2022-12-18T08:42:28;7.60;;;6.90;;
32407;SDS011;18869;55.970;37.502;2022-12-18T08:45:16;6.87;;;6.37;;
32407;SDS011;18869;55.970;37.502;2022-12-18T08:47:43;7.77;;;7.03;;
32407;SDS011;18869;55.970;37.502;2022-12-18T08:50:11;6.80;;;6.20;;
32407;SDS011;18869;55.970;37.502;2022-12-18T08:52:39;7.20;;;6.60;;
32407;SDS011;18869;55.970;37.502;2022-12-18T08:55:07;6.97;;;6.37;;
32407;SDS011;18869;55.970;37.502;2022-12-18T08:57:36;8.37;;;7.47;;
32407;SDS011;18869;55.970;37.502;2022-12-18T09:00:04;7.70;;;7.00;;
32407;SDS011;18869;55.970;37.502;2022-12-18T09:02:35;6.70;;;6.00;;
32407;SDS011;18869;55.970;37.502;2022-12-18T09:05:03;7.53;;;6.83;;
32407;SDS011;18869;55.970;37.502;2022-12-18T09:07:32;6.60;;;6.00;;
32407;SDS011;18869;55.970;37.502;2022-12-18T09:09:59;7.10;;;6.50;;
32407;SDS011;18869;55.970;37.502;2022-12-18T09:12:29;6.60;;;5.80;;
32407;SDS011;18869;55.970;37.502;2022-12-18T09:14:57;6.97;;;6.27;;
32407;SDS011;18869;55.970;37.502;2022-12-18T09:17:25;8.13;;;6.60;;
32407;SDS011;18869;55.970;37.502;2022-12-18T09:19:53;6.90;;;6.20;;
32407;SDS011;18869;55.970;37.502;2022-12-18T09:22:22;7.63;;;6.90;;
32407;SDS011;18869;55.970;37.502;2022-12-18T09:24:50;6.43;;;5.93;;
32407;SDS011;18869;55.970;37.502;2022-12-18T09:27:18;6.53;;;5.97;;
32407;SDS011;18869;55.970;37.502;2022-12-18T09:29:46;7.00;;;6.40;;
32407;SDS011;18869;55.970;37.502;2022-12-18T09:32:14;7.00;;;6.30;;
32407;SDS011;18869;55.970;37.502;2022-12-18T09:34:41;7.03;;;6.43;;
32407;SDS011;18869;55.970;37.502;2022-12-18T09:37:11;6.93;;;6.43;;
32407;SDS011;18869;55.970;37.502;2022-12-18T09:39:38;7.77;;;7.07;;
32407;SDS011;18869;55.970;37.502;2022-12-18T09:42:06;7.10;;;6.40;;
32407;SDS011;18869;55.970;37.502;2022-12-18T09:44:41;6.77;;;6.17;;
32407;SDS011;18869;55.970;37.502;2022-12-18T09:47:13;8.13;;;7.30;;
32407;SDS011;18869;55.970;37.502;2022-12-18T09:49:44;7.37;;;6.53;;
32407;SDS011;18869;55.970;37.502;2022-12-18T09:52:16;7.00;;;6.40;;
32407;SDS011;18869;55.970;37.502;2022-12-18T09:54:48;5.90;;;5.50;;
32407;SDS011;18869;55.970;37.502;2022-12-18T09:57:19;6.57;;;5.97;;
32407;SDS011;18869;55.970;37.502;2022-12-18T09:59:49;7.27;;;6.57;;
32407;SDS011;18869;55.970;37.502;2022-12-18T10:02:21;7.77;;;6.97;;
32407;SDS011;18869;55.970;37.502;2022-12-18T10:05:07;6.53;;;5.90;;
32407;SDS011;18869;55.970;37.502;2022-12-18T10:07:42;6.03;;;5.53;;
32407;SDS011;18869;55.970;37.502;2022-12-18T10:10:17;6.37;;;5.77;;
32407;SDS011;18869;55.970;37.502;2022-12-18T10:12:52;6.90;;;6.30;;
32407;SDS011;18869;55.970;37.502;2022-12-18T10:15:25;7.27;;;6.57;;
32407;SDS011;18869;55.970;37.502;2022-12-18T10:17:58;6.47;;;5.97;;
32407;SDS011;18869;55.970;37.502;2022-12-18T10:20:32;6.43;;;5.83;;
32407;SDS011;18869;55.970;37.502;2022-12-18T10:23:05;7.47;;;6.80;;
32407;SDS011;18869;55.970;37.502;2022-12-18T10:25:44;6.77;;;6.17;;
32407;SDS011;18869;55.970;37.502;2022-12-18T10:28:17;7.27;;;6.57;;
32407;SDS011;18869;55.970;37.502;2022-12-18T10:30:47;7.47;;;6.77;;
32407;SDS011;18869;55.970;37.502;2022-12-18T10:33:15;7.50;;;6.80;;
32407;SDS011;18869;55.970;37.502;2022-12-18T10:35:44;7.00;;;6.30;;
32407;SDS011;18869;55.970;37.502;2022-12-18T10:38:24;7.97;;;6.10;;
32407;SDS011;18869;55.970;37.502;2022-12-18T10:40:53;8.13;;;7.43;;
32407;SDS011;18869;55.970;37.502;2022-12-18T10:43:26;7.63;;;6.43;;
32407;SDS011;18869;55.970;37.502;2022-12-18T10:45:59;6.33;;;5.73;;
32407;SDS011;18869;55.970;37.502;2022-12-18T10:48:33;6.70;;;6.17;;
32407;SDS011;18869;55.970;37.502;2022-12-18T10:51:01;5.20;;;4.80;;
32407;SDS011;18869;55.970;37.502;2022-12-18T10:53:31;6.60;;;6.10;;
32407;SDS011;18869;55.970;37.502;2022-12-18T10:56:03;6.87;;;5.87;;
32407;SDS011;18869;55.970;37.502;2022-12-18T10:58:32;7.53;;;6.93;;
32407;SDS011;18869;55.970;37.502;2022-12-18T11:01:04;6.70;;;6.10;;
32407;SDS011;18869;55.970;37.502;2022-12-18T11:03:35;7.47;;;6.77;;
32407;SDS011;18869;55.970;37.502;2022-12-18T11:06:05;6.80;;;5.80;;
32407;SDS011;18869;55.970;37.502;2022-12-18T11:08:36;7.13;;;6.47;;
32407;SDS011;18869;55.970;37.502;2022-12-18T11:11:06;7.07;;;6.47;;
32407;SDS011;18869;55.970;37.502;2022-12-18T11:13:41;6.47;;;5.83;;
32407;SDS011;18869;55.970;37.502;2022-12-18T11:16:19;6.93;;;6.43;;
32407;SDS011;18869;55.970;37.502;2022-12-18T11:18:47;7.93;;;7.23;;
32407;SDS011;18869;55.970;37.502;2022-12-18T11:21:15;6.97;;;6.47;;
32407;SDS011;18869;55.970;37.502;2022-12-18T11:23:46;6.20;;;5.60;;
32407;SDS011;18869;55.970;37.502;2022-12-18T11:26:14;6.00;;;5.50;;
32407;SDS011;18869;55.970;37.502;2022-12-18T11:28:43;7.53;;;6.87;;
32407;SDS011;18869;55.970;37.502;2022-12-18T11:31:19;7.20;;;6.50;;
32407;SDS011;18869;55.970;37.502;2022-12-18T11:33:54;6.67;;;6.07;;
32407;SDS011;18869;55.970;37.502;2022-12-18T11:36:25;6.03;;;5.53;;
32407;SDS011;18869;55.970;37.502;2022-12-18T11:38:54;7.07;;;6.37;;
32407;SDS011;18869;55.970;37.502;2022-12-18T11:41:25;5.70;;;5.30;;
32407;SDS011;18869;55.970;37.502;2022-12-18T11:44:10;6.03;;;5.53;;
32407;SDS011;18869;55.970;37.502;2022-12-18T11:46:39;7.13;;;6.63;;
32407;SDS011;18869;55.970;37.502;2022-12-18T11:49:14;6.40;;;5.90;;
32407;SDS011;18869;55.970;37.502;2022-12-18T11:51:48;7.00;;;6.40;;
32407;SDS011;18869;55.970;37.502;2022-12-18T11:54:20;5.57;;;5.17;;
32407;SDS011;18869;55.970;37.502;2022-12-18T11:56:49;6.33;;;5.80;;
32407;SDS011;18869;55.970;37.502;2022-12-18T11:59:20;6.10;;;5.50;;
32407;SDS011;18869;55.970;37.502;2022-12-18T12:01:55;5.03;;;4.63;;
32407;SDS011;18869;55.970;37.502;2022-12-18T12:04:39;5.90;;;5.50;;
32407;SDS011;18869;55.970;37.502;2022-12-18T12:07:22;6.73;;;6.23;;
32407;SDS011;18869;55.970;37.502;2022-12-18T12:09:58;6.33;;;5.80;;
32407;SDS011;18869;55.970;37.502;2022-12-18T12:12:33;7.00;;;6.50;;
32407;SDS011;18869;55.970;37.502;2022-12-18T12:15:13;6.73;;;6.23;;
32407;SDS011;18869;55.970;37.502;2022-12-18T12:17:49;6.10;;;5.60;;
32407;SDS011;18869;55.970;37.502;2022-12-18T12:20:22;6.80;;;6.10;;
32407;SDS011;18869;55.970;37.502;2022-12-18T12:22:53;5.50;;;5.10;;
32407;SDS011;18869;55.970;37.502;2022-12-18T12:25:28;5.83;;;5.43;;
32407;SDS011;18869;55.970;37.502;2022-12-18T12:28:03;70.27;;;11.63;;
32407;SDS011;18869;55.970;37.502;2022-12-18T12:30:43;11.80;;;8.63;;
32407;SDS011;18869;55.970;37.502;2022-12-18T12:33:21;11.87;;;8.33;;
32407;SDS011;18869;55.970;37.502;2022-12-18T12:35:58;11.57;;;8.87;;
32407;SDS011;18869;55.970;37.502;2022-12-18T12:38:28;11.23;;;8.77;;
32407;SDS011;18869;55.970;37.502;2022-12-18T12:41:00;11.23;;;8.53;;
32407;SDS011;18869;55.970;37.502;2022-12-18T12:43:32;11.37;;;8.23;;
32407;SDS011;18869;55.970;37.502;2022-12-18T12:46:03;13.83;;;9.67;;
32407;SDS011;18869;55.970;37.502;2022-12-18T12:48:34;12.93;;;10.23;;
32407;SDS011;18869;55.970;37.502;2022-12-18T12:51:08;15.37;;;9.97;;
32407;SDS011;18869;55.970;37.502;2022-12-18T12:53:38;15.73;;;11.20;;
32407;SDS011;18869;55.970;37.502;2022-12-18T12:56:09;19.83;;;11.47;;
32407;SDS011;18869;55.970;37.502;2022-12-18T12:58:41;15.17;;;9.93;;
32407;SDS011;18869;55.970;37.502;2022-12-18T13:01:17;18.27;;;11.53;;
32407;SDS011;18869;55.970;37.502;2022-12-18T13:03:56;20.77;;;11.63;;
32407;SDS011;18869;55.970;37.502;2022-12-18T13:06:33;21.10;;;11.40;;
32407;SDS011;18869;55.970;37.502;2022-12-18T13:09:06;17.37;;;12.23;;
32407;SDS011;18869;55.970;37.502;2022-12-18T13:11:39;19.23;;;12.50;;
32407;SDS011;18869;55.970;37.502;2022-12-18T13:14:28;27.40;;;13.43;;
32407;SDS011;18869;55.970;37.502;2022-12-18T13:17:16;23.23;;;12.43;;
32407;SDS011;18869;55.970;37.502;2022-12-18T13:20:03;23.80;;;12.97;;
32407;SDS011;18869;55.970;37.502;2022-12-18T13:22:34;22.43;;;12.77;;
32407;SDS011;18869;55.970;37.502;2022-12-18T13:25:03;21.20;;;12.13;;
32407;SDS011;18869;55.970;37.502;2022-12-18T13:30:47;19.10;;;11.27;;
32407;SDS011;18869;55.970;37.502;2022-12-18T13:36:16;17.20;;;11.17;;
32407;SDS011;18869;55.970;37.502;2022-12-18T13:39:09;14.53;;;10.60;;
32407;SDS011;18869;55.970;37.502;2022-12-18T13:41:53;15.73;;;11.37;;
32407;SDS011;18869;55.970;37.502;2022-12-18T13:44:31;17.53;;;12.23;;
32407;SDS011;18869;55.970;37.502;2022-12-18T13:47:01;19.30;;;11.50;;
32407;SDS011;18869;55.970;37.502;2022-12-18T13:49:35;18.87;;;11.03;;
32407;SDS011;18869;55.970;37.502;2022-12-18T13:52:14;14.27;;;10.33;;
32407;SDS011;18869;55.970;37.502;2022-12-18T13:54:45;13.10;;;10.90;;
32407;SDS011;18869;55.970;37.502;2022-12-18T13:57:27;13.90;;;9.73;;
32407;SDS011;18869;55.970;37.502;2022-12-18T13:59:56;12.50;;;9.83;;
32407;SDS011;18869;55.970;37.502;2022-12-18T14:02:26;13.67;;;9.60;;
32407;SDS011;18869;55.970;37.502;2022-12-18T14:04:54;14.63;;;10.80;;
32407;SDS011;18869;55.970;37.502;2022-12-18T14:07:22;13.10;;;9.20;;
32407;SDS011;18869;55.970;37.502;2022-12-18T14:09:54;10.93;;;8.27;;
32407;SDS011;18869;55.970;37.502;2022-12-18T14:12:24;13.07;;;10.73;;
32407;SDS011;18869;55.970;37.502;2022-12-18T14:15:25;10.03;;;8.93;;
32407;SDS011;18869;55.970;37.502;2022-12-18T14:18:01;10.60;;;8.13;;
32407;SDS011;18869;55.970;37.502;2022-12-18T14:20:31;9.07;;;7.93;;
32407;SDS011;18869;55.970;37.502;2022-12-18T14:22:59;10.63;;;7.87;;
32407;SDS011;18869;55.970;37.502;2022-12-18T14:25:27;10.40;;;9.30;;
32407;SDS011;18869;55.970;37.502;2022-12-18T14:28:02;8.37;;;7.60;;
32407;SDS011;18869;55.970;37.502;2022-12-18T14:30:35;9.97;;;8.97;;
32407;SDS011;18869;55.970;37.502;2022-12-18T14:33:08;10.47;;;9.57;;
32407;SDS011;18869;55.970;37.502;2022-12-18T14:35:38;8.73;;;7.63;;
32407;SDS011;18869;55.970;37.502;2022-12-18T14:38:21;11.30;;;9.50;;
32407;SDS011;18869;55.970;37.502;2022-12-18T14:40:55;8.70;;;7.80;;
32407;SDS011;18869;55.970;37.502;2022-12-18T14:43:25;9.47;;;8.50;;
32407;SDS011;18869;55.970;37.502;2022-12-18T14:45:54;9.73;;;8.83;;
32407;SDS011;18869;55.970;37.502;2022-12-18T14:48:33;8.40;;;7.57;;
32407;SDS011;18869;55.970;37.502;2022-12-18T14:51:05;9.07;;;8.17;;
32407;SDS011;18869;55.970;37.502;2022-12-18T14:53:40;8.87;;;7.93;;
32407;SDS011;18869;55.970;37.502;2022-12-18T14:56:13;8.03;;;7.33;;